sensor_id;sensor_type;location;lat;lon;timestamp;temperature;humidity
8910;DHT22;4490;49.072;8.804;2023-03-24T00:01:22;14.70;97.80
8910;DHT22;4490;49.072;8.804;2023-03-24T00:03:48;14.70;98.10
8910;DHT22;4490;49.072;8.804;2023-03-24T00:06:16;14.60;98.10
8910;DHT22;4490;49.072;8.804;2023-03-24T00:08:43;14.60;98.50
8910;DHT22;4490;49.072;8.804;2023-03-24T00:11:12;14.50;98.70
8910;DHT22;4490;49.072;8.804;2023-03-24T00:13:40;14.50;99.40
8910;DHT22;4490;49.072;8.804;2023-03-24T00:16:07;14.50;99.80
8910;DHT22;4490;49.072;8.804;2023-03-24T00:18:33;14.40;99.90
8910;DHT22;4490;49.072;8.804;2023-03-24T00:20:59;14.40;99.90
8910;DHT22;4490;49.072;8.804;2023-03-24T00:23:27;14.40;99.90
8910;DHT22;4490;49.072;8.804;2023-03-24T00:26:06;14.30;99.90
8910;DHT22;4490;49.072;8.804;2023-03-24T00:28:35;14.20;99.90
8910;DHT22;4490;49.072;8.804;2023-03-24T00:31:02;14.20;99.90
8910;DHT22;4490;49.072;8.804;2023-03-24T00:33:29;14.20;99.90
8910;DHT22;4490;49.072;8.804;2023-03-24T00:36:03;14.20;99.90
8910;DHT22;4490;49.072;8.804;2023-03-24T00:38:30;14.20;99.90
8910;DHT22;4490;49.072;8.804;2023-03-24T00:40:58;14.20;99.90
8910;DHT22;4490;49.072;8.804;2023-03-24T00:43:24;14.10;99.90
8910;DHT22;4490;49.072;8.804;2023-03-24T00:46:00;14.20;99.90
8910;DHT22;4490;49.072;8.804;2023-03-24T00:48:27;14.20;99.90
8910;DHT22;4490;49.072;8.804;2023-03-24T00:50:53;14.20;99.90
8910;DHT22;4490;49.072;8.804;2023-03-24T00:53:19;14.20;99.90
8910;DHT22;4490;49.072;8.804;2023-03-24T00:55:47;14.20;99.90
8910;DHT22;4490;49.072;8.804;2023-03-24T00:58:16;14.20;99.90
8910;DHT22;4490;49.072;8.804;2023-03-24T01:00:54;14.20;99.90
8910;DHT22;4490;49.072;8.804;2023-03-24T01:03:22;14.20;99.90
8910;DHT22;4490;49.072;8.804;2023-03-24T01:05:58;14.20;99.90
8910;DHT22;4490;49.072;8.804;2023-03-24T01:08:25;14.20;99.90
8910;DHT22;4490;49.072;8.804;2023-03-24T01:10:52;14.20;99.90
8910;DHT22;4490;49.072;8.804;2023-03-24T01:13:24;14.20;99.90
8910;DHT22;4490;49.072;8.804;2023-03-24T01:15:50;14.30;99.90
8910;DHT22;4490;49.072;8.804;2023-03-24T01:18:16;14.30;99.90
8910;DHT22;4490;49.072;8.804;2023-03-24T01:20:44;14.30;99.90
8910;DHT22;4490;49.072;8.804;2023-03-24T01:23:12;14.40;99.90
8910;DHT22;4490;49.072;8.804;2023-03-24T01:25:39;14.40;99.90
8910;DHT22;4490;49.072;8.804;2023-03-24T01:28:07;14.40;99.50
8910;DHT22;4490;49.072;8.804;2023-03-24T01:30:33;14.40;99.50
8910;DHT22;4490;49.072;8.804;2023-03-24T01:32:58;14.50;99.40
8910;DHT22;4490;49.072;8.804;2023-03-24T01:35:24;14.50;99.20
8910;DHT22;4490;49.072;8.804;2023-03-24T01:37:51;14.50;99.00
8910;DHT22;4490;49.072;8.804;2023-03-24T01:40:19;14.50;98.90
8910;DHT22;4490;49.072;8.804;2023-03-24T01:42:45;14.50;98.80
8910;DHT22;4490;49.072;8.804;2023-03-24T01:47:58;14.50;99.60
8910;DHT22;4490;49.072;8.804;2023-03-24T01:50:24;14.50;99.90
8910;DHT22;4490;49.072;8.804;2023-03-24T01:52:50;14.40;99.90
8910;DHT22;4490;49.072;8.804;2023-03-24T01:55:17;14.40;99.90
8910;DHT22;4490;49.072;8.804;2023-03-24T01:57:50;14.40;99.90
8910;DHT22;4490;49.072;8.804;2023-03-24T02:00:20;14.40;99.90
8910;DHT22;4490;49.072;8.804;2023-03-24T02:02:56;14.40;99.90
8910;DHT22;4490;49.072;8.804;2023-03-24T02:05:26;14.40;99.90
8910;DHT22;4490;49.072;8.804;2023-03-24T02:10:24;14.40;99.90
8910;DHT22;4490;49.072;8.804;2023-03-24T02:12:50;14.40;99.90
8910;DHT22;4490;49.072;8.804;2023-03-24T02:15:17;14.40;99.90
8910;DHT22;4490;49.072;8.804;2023-03-24T02:18:05;14.40;99.80
8910;DHT22;4490;49.072;8.804;2023-03-24T02:26:42;14.40;99.30
8910;DHT22;4490;49.072;8.804;2023-03-24T02:42:43;14.40;99.90
8910;DHT22;4490;49.072;8.804;2023-03-24T02:45:36;14.40;99.90
8910;DHT22;4490;49.072;8.804;2023-03-24T02:48:08;14.40;99.70
8910;DHT22;4490;49.072;8.804;2023-03-24T02:53:29;14.40;99.40
8910;DHT22;4490;49.072;8.804;2023-03-24T02:56:09;14.40;99.40
8910;DHT22;4490;49.072;8.804;2023-03-24T02:58:49;14.40;99.40
8910;DHT22;4490;49.072;8.804;2023-03-24T03:01:22;14.40;98.70
8910;DHT22;4490;49.072;8.804;2023-03-24T03:04:00;14.40;98.50
8910;DHT22;4490;49.072;8.804;2023-03-24T03:06:33;14.40;98.10
8910;DHT22;4490;49.072;8.804;2023-03-24T03:09:04;14.40;97.80
8910;DHT22;4490;49.072;8.804;2023-03-24T03:11:31;14.40;97.50
8910;DHT22;4490;49.072;8.804;2023-03-24T03:14:04;14.50;97.90
8910;DHT22;4490;49.072;8.804;2023-03-24T03:16:58;14.50;97.90
8910;DHT22;4490;49.072;8.804;2023-03-24T03:19:52;14.50;98.50
8910;DHT22;4490;49.072;8.804;2023-03-24T03:22:26;14.50;98.40
8910;DHT22;4490;49.072;8.804;2023-03-24T03:24:55;14.50;98.90
8910;DHT22;4490;49.072;8.804;2023-03-24T03:27:25;14.50;99.20
8910;DHT22;4490;49.072;8.804;2023-03-24T03:30:03;14.50;99.60
8910;DHT22;4490;49.072;8.804;2023-03-24T03:32:32;14.50;99.90
8910;DHT22;4490;49.072;8.804;2023-03-24T03:38:17;14.60;99.90
8910;DHT22;4490;49.072;8.804;2023-03-24T03:43:17;14.60;99.90
8910;DHT22;4490;49.072;8.804;2023-03-24T03:45:43;14.60;99.90
8910;DHT22;4490;49.072;8.804;2023-03-24T03:48:09;14.60;99.90
8910;DHT22;4490;49.072;8.804;2023-03-24T03:50:36;14.50;99.90
8910;DHT22;4490;49.072;8.804;2023-03-24T03:53:04;14.50;99.90
8910;DHT22;4490;49.072;8.804;2023-03-24T03:55:30;14.50;99.90
8910;DHT22;4490;49.072;8.804;2023-03-24T03:57:56;14.50;99.90
8910;DHT22;4490;49.072;8.804;2023-03-24T04:00:22;14.50;99.90
8910;DHT22;4490;49.072;8.804;2023-03-24T04:08:48;14.60;99.90
8910;DHT22;4490;49.072;8.804;2023-03-24T04:14:39;14.60;99.90
8910;DHT22;4490;49.072;8.804;2023-03-24T04:20:07;14.60;99.90
8910;DHT22;4490;49.072;8.804;2023-03-24T04:22:51;14.60;99.90
8910;DHT22;4490;49.072;8.804;2023-03-24T04:31:37;14.60;99.90
8910;DHT22;4490;49.072;8.804;2023-03-24T04:34:24;14.50;99.90
8910;DHT22;4490;49.072;8.804;2023-03-24T04:36:57;14.50;99.90
8910;DHT22;4490;49.072;8.804;2023-03-24T04:39:30;14.40;99.90
8910;DHT22;4490;49.072;8.804;2023-03-24T04:42:00;14.30;99.90
8910;DHT22;4490;49.072;8.804;2023-03-24T04:44:26;14.30;99.90
8910;DHT22;4490;49.072;8.804;2023-03-24T04:46:56;14.20;99.90
8910;DHT22;4490;49.072;8.804;2023-03-24T04:49:22;14.20;99.90
8910;DHT22;4490;49.072;8.804;2023-03-24T04:51:52;14.20;99.90
8910;DHT22;4490;49.072;8.804;2023-03-24T04:54:22;14.20;99.90
8910;DHT22;4490;49.072;8.804;2023-03-24T04:56:55;14.20;99.90
8910;DHT22;4490;49.072;8.804;2023-03-24T04:59:22;14.20;99.90
8910;DHT22;4490;49.072;8.804;2023-03-24T05:01:48;14.20;99.90
8910;DHT22;4490;49.072;8.804;2023-03-24T05:04:21;14.10;99.90
8910;DHT22;4490;49.072;8.804;2023-03-24T05:06:47;14.20;99.90
8910;DHT22;4490;49.072;8.804;2023-03-24T05:09:18;14.10;99.90
8910;DHT22;4490;49.072;8.804;2023-03-24T05:11:46;14.00;99.90
8910;DHT22;4490;49.072;8.804;2023-03-24T05:14:12;14.00;99.90
8910;DHT22;4490;49.072;8.804;2023-03-24T05:16:37;13.90;99.90
8910;DHT22;4490;49.072;8.804;2023-03-24T05:19:04;13.90;99.90
8910;DHT22;4490;49.072;8.804;2023-03-24T05:21:30;13.80;99.90
8910;DHT22;4490;49.072;8.804;2023-03-24T05:23:56;13.70;99.90
8910;DHT22;4490;49.072;8.804;2023-03-24T05:26:21;13.70;99.90
8910;DHT22;4490;49.072;8.804;2023-03-24T05:28:47;13.60;99.90
8910;DHT22;4490;49.072;8.804;2023-03-24T05:31:13;13.50;99.90
8910;DHT22;4490;49.072;8.804;2023-03-24T05:33:38;13.50;99.90
8910;DHT22;4490;49.072;8.804;2023-03-24T05:36:05;13.40;99.90
8910;DHT22;4490;49.072;8.804;2023-03-24T05:38:30;13.40;99.90
8910;DHT22;4490;49.072;8.804;2023-03-24T05:41:00;13.40;99.90
8910;DHT22;4490;49.072;8.804;2023-03-24T05:43:26;13.40;99.90
8910;DHT22;4490;49.072;8.804;2023-03-24T05:45:52;13.30;99.90
8910;DHT22;4490;49.072;8.804;2023-03-24T05:48:17;13.30;99.90
8910;DHT22;4490;49.072;8.804;2023-03-24T05:50:43;13.30;99.90
8910;DHT22;4490;49.072;8.804;2023-03-24T05:53:08;13.30;99.90
8910;DHT22;4490;49.072;8.804;2023-03-24T05:55:35;13.30;99.90
8910;DHT22;4490;49.072;8.804;2023-03-24T05:58:00;13.30;99.90
8910;DHT22;4490;49.072;8.804;2023-03-24T06:00:30;13.30;99.90
8910;DHT22;4490;49.072;8.804;2023-03-24T06:02:56;13.30;99.90
8910;DHT22;4490;49.072;8.804;2023-03-24T06:05:22;13.30;99.90
8910;DHT22;4490;49.072;8.804;2023-03-24T06:07:48;13.30;99.90
8910;DHT22;4490;49.072;8.804;2023-03-24T06:10:14;13.30;99.90
8910;DHT22;4490;49.072;8.804;2023-03-24T06:12:43;13.30;99.90
8910;DHT22;4490;49.072;8.804;2023-03-24T06:15:10;13.40;99.90
8910;DHT22;4490;49.072;8.804;2023-03-24T06:17:35;13.40;99.90
8910;DHT22;4490;49.072;8.804;2023-03-24T06:20:03;13.30;99.90
8910;DHT22;4490;49.072;8.804;2023-03-24T06:22:31;13.40;99.90
8910;DHT22;4490;49.072;8.804;2023-03-24T06:24:57;13.40;99.90
8910;DHT22;4490;49.072;8.804;2023-03-24T06:27:24;13.40;99.90
8910;DHT22;4490;49.072;8.804;2023-03-24T06:29:51;13.40;99.90
8910;DHT22;4490;49.072;8.804;2023-03-24T06:32:18;13.40;99.90
8910;DHT22;4490;49.072;8.804;2023-03-24T06:34:44;13.50;99.90
8910;DHT22;4490;49.072;8.804;2023-03-24T06:37:10;13.50;99.90
8910;DHT22;4490;49.072;8.804;2023-03-24T06:39:36;13.50;99.90
8910;DHT22;4490;49.072;8.804;2023-03-24T06:42:02;13.50;99.90
8910;DHT22;4490;49.072;8.804;2023-03-24T06:44:28;13.60;99.90
8910;DHT22;4490;49.072;8.804;2023-03-24T06:46:53;13.60;99.90
8910;DHT22;4490;49.072;8.804;2023-03-24T06:49:19;13.60;99.90
8910;DHT22;4490;49.072;8.804;2023-03-24T06:51:45;13.60;99.90
8910;DHT22;4490;49.072;8.804;2023-03-24T06:54:11;13.60;99.90
8910;DHT22;4490;49.072;8.804;2023-03-24T06:56:36;13.70;99.90
8910;DHT22;4490;49.072;8.804;2023-03-24T06:59:02;13.70;99.90
8910;DHT22;4490;49.072;8.804;2023-03-24T07:01:28;13.70;99.90
8910;DHT22;4490;49.072;8.804;2023-03-24T07:03:54;13.70;99.90
8910;DHT22;4490;49.072;8.804;2023-03-24T07:06:20;13.70;99.90
8910;DHT22;4490;49.072;8.804;2023-03-24T07:08:47;13.70;99.90
8910;DHT22;4490;49.072;8.804;2023-03-24T07:11:13;13.70;99.90
8910;DHT22;4490;49.072;8.804;2023-03-24T07:13:40;13.70;99.90
8910;DHT22;4490;49.072;8.804;2023-03-24T07:16:06;13.70;99.90
8910;DHT22;4490;49.072;8.804;2023-03-24T07:18:32;13.70;99.90
8910;DHT22;4490;49.072;8.804;2023-03-24T07:20:57;13.70;99.90
8910;DHT22;4490;49.072;8.804;2023-03-24T07:23:23;13.70;99.90
8910;DHT22;4490;49.072;8.804;2023-03-24T07:25:52;13.70;99.90
8910;DHT22;4490;49.072;8.804;2023-03-24T07:28:18;13.70;99.90
8910;DHT22;4490;49.072;8.804;2023-03-24T07:30:44;13.70;99.90
8910;DHT22;4490;49.072;8.804;2023-03-24T07:33:10;13.70;99.90
8910;DHT22;4490;49.072;8.804;2023-03-24T07:35:37;13.70;99.90
8910;DHT22;4490;49.072;8.804;2023-03-24T07:38:03;13.70;99.90
8910;DHT22;4490;49.072;8.804;2023-03-24T07:40:29;13.70;99.90
8910;DHT22;4490;49.072;8.804;2023-03-24T07:42:58;13.80;99.90
8910;DHT22;4490;49.072;8.804;2023-03-24T07:45:24;13.80;99.90
8910;DHT22;4490;49.072;8.804;2023-03-24T07:47:50;13.80;99.90
8910;DHT22;4490;49.072;8.804;2023-03-24T07:50:16;13.80;99.90
8910;DHT22;4490;49.072;8.804;2023-03-24T07:52:46;13.80;99.90
8910;DHT22;4490;49.072;8.804;2023-03-24T07:55:12;13.80;99.90
8910;DHT22;4490;49.072;8.804;2023-03-24T07:57:44;13.80;99.90
8910;DHT22;4490;49.072;8.804;2023-03-24T08:00:10;13.80;99.90
8910;DHT22;4490;49.072;8.804;2023-03-24T08:02:43;13.80;99.90
8910;DHT22;4490;49.072;8.804;2023-03-24T08:05:09;13.80;99.90
8910;DHT22;4490;49.072;8.804;2023-03-24T08:07:39;13.80;99.90
8910;DHT22;4490;49.072;8.804;2023-03-24T08:10:08;13.80;99.90
8910;DHT22;4490;49.072;8.804;2023-03-24T08:12:33;13.80;99.90
8910;DHT22;4490;49.072;8.804;2023-03-24T08:14:59;13.90;99.90
8910;DHT22;4490;49.072;8.804;2023-03-24T08:17:24;13.80;99.90
8910;DHT22;4490;49.072;8.804;2023-03-24T08:19:50;13.80;99.90
8910;DHT22;4490;49.072;8.804;2023-03-24T08:22:16;13.90;99.90
8910;DHT22;4490;49.072;8.804;2023-03-24T08:24:41;14.00;99.90
8910;DHT22;4490;49.072;8.804;2023-03-24T08:27:07;14.00;99.90
8910;DHT22;4490;49.072;8.804;2023-03-24T08:29:33;14.10;99.90
8910;DHT22;4490;49.072;8.804;2023-03-24T08:31:59;14.10;99.90
8910;DHT22;4490;49.072;8.804;2023-03-24T08:34:26;14.20;99.90
8910;DHT22;4490;49.072;8.804;2023-03-24T08:36:51;14.20;99.90
8910;DHT22;4490;49.072;8.804;2023-03-24T08:39:17;14.30;99.90
8910;DHT22;4490;49.072;8.804;2023-03-24T08:41:43;14.30;99.90
8910;DHT22;4490;49.072;8.804;2023-03-24T08:44:11;14.30;99.90
8910;DHT22;4490;49.072;8.804;2023-03-24T08:46:36;14.30;99.90
8910;DHT22;4490;49.072;8.804;2023-03-24T08:49:03;14.40;99.90
8910;DHT22;4490;49.072;8.804;2023-03-24T08:51:28;14.40;99.90
8910;DHT22;4490;49.072;8.804;2023-03-24T08:53:54;14.50;99.90
8910;DHT22;4490;49.072;8.804;2023-03-24T08:56:20;14.50;99.90
8910;DHT22;4490;49.072;8.804;2023-03-24T08:58:46;14.50;99.90
8910;DHT22;4490;49.072;8.804;2023-03-24T09:01:13;14.60;99.90
8910;DHT22;4490;49.072;8.804;2023-03-24T09:03:39;14.60;99.90
8910;DHT22;4490;49.072;8.804;2023-03-24T09:06:06;14.60;99.90
8910;DHT22;4490;49.072;8.804;2023-03-24T09:08:32;14.60;99.90
8910;DHT22;4490;49.072;8.804;2023-03-24T09:10:57;14.60;99.90
8910;DHT22;4490;49.072;8.804;2023-03-24T09:13:23;14.60;99.90
8910;DHT22;4490;49.072;8.804;2023-03-24T09:15:56;14.70;99.90
8910;DHT22;4490;49.072;8.804;2023-03-24T09:18:22;14.70;99.90
8910;DHT22;4490;49.072;8.804;2023-03-24T09:20:49;14.70;99.90
8910;DHT22;4490;49.072;8.804;2023-03-24T09:23:15;14.80;99.90
8910;DHT22;4490;49.072;8.804;2023-03-24T09:25:41;14.80;99.90
8910;DHT22;4490;49.072;8.804;2023-03-24T09:28:06;14.80;99.90
8910;DHT22;4490;49.072;8.804;2023-03-24T09:30:33;14.80;99.90
8910;DHT22;4490;49.072;8.804;2023-03-24T09:32:59;14.90;99.90
8910;DHT22;4490;49.072;8.804;2023-03-24T09:35:25;14.90;99.90
8910;DHT22;4490;49.072;8.804;2023-03-24T09:37:52;14.90;99.90
8910;DHT22;4490;49.072;8.804;2023-03-24T09:43:01;15.00;99.90
8910;DHT22;4490;49.072;8.804;2023-03-24T09:45:29;15.10;99.90
8910;DHT22;4490;49.072;8.804;2023-03-24T09:47:59;15.20;99.90
8910;DHT22;4490;49.072;8.804;2023-03-24T09:50:28;15.20;99.90
8910;DHT22;4490;49.072;8.804;2023-03-24T09:53:03;15.20;99.90
8910;DHT22;4490;49.072;8.804;2023-03-24T09:55:32;15.30;99.90
8910;DHT22;4490;49.072;8.804;2023-03-24T09:58:03;15.40;99.90
8910;DHT22;4490;49.072;8.804;2023-03-24T10:00:31;15.40;99.90
8910;DHT22;4490;49.072;8.804;2023-03-24T10:03:01;15.50;99.90
8910;DHT22;4490;49.072;8.804;2023-03-24T10:05:59;15.60;99.90
8910;DHT22;4490;49.072;8.804;2023-03-24T10:08:39;15.70;99.90
8910;DHT22;4490;49.072;8.804;2023-03-24T10:13:50;15.80;99.90
8910;DHT22;4490;49.072;8.804;2023-03-24T10:21:39;15.90;99.90
8910;DHT22;4490;49.072;8.804;2023-03-24T10:24:21;15.90;99.90
8910;DHT22;4490;49.072;8.804;2023-03-24T10:26:48;16.00;99.90
8910;DHT22;4490;49.072;8.804;2023-03-24T10:29:26;16.00;99.90
8910;DHT22;4490;49.072;8.804;2023-03-24T10:34:27;16.00;99.90
8910;DHT22;4490;49.072;8.804;2023-03-24T10:36:56;15.90;99.90
8910;DHT22;4490;49.072;8.804;2023-03-24T10:39:22;15.90;99.90
8910;DHT22;4490;49.072;8.804;2023-03-24T10:41:48;15.90;99.00
8910;DHT22;4490;49.072;8.804;2023-03-24T10:44:14;16.00;99.10
8910;DHT22;4490;49.072;8.804;2023-03-24T10:47:02;16.00;99.30
8910;DHT22;4490;49.072;8.804;2023-03-24T10:49:29;16.10;95.10
8910;DHT22;4490;49.072;8.804;2023-03-24T10:52:00;16.00;95.90
8910;DHT22;4490;49.072;8.804;2023-03-24T10:54:30;16.00;96.80
8910;DHT22;4490;49.072;8.804;2023-03-24T11:04:39;16.10;96.60
8910;DHT22;4490;49.072;8.804;2023-03-24T11:07:15;16.20;95.00
8910;DHT22;4490;49.072;8.804;2023-03-24T11:09:43;16.30;95.20
8910;DHT22;4490;49.072;8.804;2023-03-24T11:12:28;16.40;95.00
8910;DHT22;4490;49.072;8.804;2023-03-24T11:17:47;16.50;94.20
8910;DHT22;4490;49.072;8.804;2023-03-24T11:20:36;16.60;93.10
8910;DHT22;4490;49.072;8.804;2023-03-24T11:25:39;16.60;91.10
8910;DHT22;4490;49.072;8.804;2023-03-24T11:28:08;16.70;91.00
8910;DHT22;4490;49.072;8.804;2023-03-24T11:30:52;16.70;91.60
8910;DHT22;4490;49.072;8.804;2023-03-24T11:33:26;16.80;91.30
8910;DHT22;4490;49.072;8.804;2023-03-24T11:35:53;16.80;90.60
8910;DHT22;4490;49.072;8.804;2023-03-24T11:38:31;16.80;90.80
8910;DHT22;4490;49.072;8.804;2023-03-24T11:40:59;16.90;90.50
8910;DHT22;4490;49.072;8.804;2023-03-24T11:43:27;16.90;91.00
8910;DHT22;4490;49.072;8.804;2023-03-24T11:46:01;16.90;91.00
8910;DHT22;4490;49.072;8.804;2023-03-24T11:48:49;17.00;90.80
8910;DHT22;4490;49.072;8.804;2023-03-24T11:51:34;17.00;90.50
8910;DHT22;4490;49.072;8.804;2023-03-24T11:54:03;16.90;90.60
8910;DHT22;4490;49.072;8.804;2023-03-24T11:56:30;16.80;91.00
8910;DHT22;4490;49.072;8.804;2023-03-24T11:59:01;16.80;91.00
8910;DHT22;4490;49.072;8.804;2023-03-24T12:01:36;16.70;90.40
8910;DHT22;4490;49.072;8.804;2023-03-24T12:09:34;16.60;90.90
8910;DHT22;4490;49.072;8.804;2023-03-24T12:12:20;16.70;91.30
8910;DHT22;4490;49.072;8.804;2023-03-24T12:15:18;16.70;91.10
8910;DHT22;4490;49.072;8.804;2023-03-24T12:23:46;16.00;91.70
8910;DHT22;4490;49.072;8.804;2023-03-24T12:26:23;15.60;93.70
8910;DHT22;4490;49.072;8.804;2023-03-24T12:32:23;14.60;99.80
8910;DHT22;4490;49.072;8.804;2023-03-24T12:35:05;14.30;99.90
8910;DHT22;4490;49.072;8.804;2023-03-24T12:37:48;14.10;99.90
8910;DHT22;4490;49.072;8.804;2023-03-24T12:43:30;13.60;99.90
8910;DHT22;4490;49.072;8.804;2023-03-24T12:46:00;13.50;99.90
8910;DHT22;4490;49.072;8.804;2023-03-24T12:48:48;13.20;99.90
8910;DHT22;4490;49.072;8.804;2023-03-24T12:54:17;13.00;99.90
8910;DHT22;4490;49.072;8.804;2023-03-24T12:56:49;12.90;99.90
8910;DHT22;4490;49.072;8.804;2023-03-24T13:01:50;12.70;99.90
8910;DHT22;4490;49.072;8.804;2023-03-24T13:04:24;12.70;99.90
8910;DHT22;4490;49.072;8.804;2023-03-24T13:06:52;12.70;99.90
8910;DHT22;4490;49.072;8.804;2023-03-24T13:15:01;12.50;99.90
8910;DHT22;4490;49.072;8.804;2023-03-24T13:17:57;12.40;99.90
8910;DHT22;4490;49.072;8.804;2023-03-24T13:20:30;12.40;99.90
8910;DHT22;4490;49.072;8.804;2023-03-24T13:23:14;12.30;99.90
8910;DHT22;4490;49.072;8.804;2023-03-24T13:32:10;12.20;99.90
8910;DHT22;4490;49.072;8.804;2023-03-24T13:34:42;12.20;99.90
8910;DHT22;4490;49.072;8.804;2023-03-24T13:37:19;12.20;99.90
8910;DHT22;4490;49.072;8.804;2023-03-24T13:39:56;12.30;99.90
8910;DHT22;4490;49.072;8.804;2023-03-24T13:42:34;12.40;99.90
8910;DHT22;4490;49.072;8.804;2023-03-24T13:45:03;12.50;99.90
8910;DHT22;4490;49.072;8.804;2023-03-24T13:50:13;12.70;99.90
8910;DHT22;4490;49.072;8.804;2023-03-24T13:52:44;12.70;99.90
8910;DHT22;4490;49.072;8.804;2023-03-24T13:55:19;12.80;99.90
8910;DHT22;4490;49.072;8.804;2023-03-24T13:58:07;12.90;99.90
8910;DHT22;4490;49.072;8.804;2023-03-24T14:03:32;13.20;99.90
8910;DHT22;4490;49.072;8.804;2023-03-24T14:06:00;13.20;99.90
8910;DHT22;4490;49.072;8.804;2023-03-24T14:11:48;13.40;99.90
8910;DHT22;4490;49.072;8.804;2023-03-24T14:19:43;13.50;99.90
8910;DHT22;4490;49.072;8.804;2023-03-24T14:27:47;13.40;99.90
8910;DHT22;4490;49.072;8.804;2023-03-24T14:30:18;13.40;99.90
8910;DHT22;4490;49.072;8.804;2023-03-24T14:32:50;13.50;99.90
8910;DHT22;4490;49.072;8.804;2023-03-24T14:35:35;13.50;99.90
8910;DHT22;4490;49.072;8.804;2023-03-24T14:40:49;13.70;99.90
8910;DHT22;4490;49.072;8.804;2023-03-24T14:43:25;13.70;99.90
8910;DHT22;4490;49.072;8.804;2023-03-24T14:49:20;13.80;99.90
8910;DHT22;4490;49.072;8.804;2023-03-24T14:51:57;13.90;99.90
8910;DHT22;4490;49.072;8.804;2023-03-24T14:56:57;14.00;99.90
8910;DHT22;4490;49.072;8.804;2023-03-24T14:59:44;14.00;99.90
8910;DHT22;4490;49.072;8.804;2023-03-24T15:02:31;14.00;99.90
8910;DHT22;4490;49.072;8.804;2023-03-24T15:08:14;14.10;99.90
8910;DHT22;4490;49.072;8.804;2023-03-24T15:18:52;14.30;99.90
8910;DHT22;4490;49.072;8.804;2023-03-24T15:23:55;14.40;99.90
8910;DHT22;4490;49.072;8.804;2023-03-24T15:26:22;14.50;99.90
8910;DHT22;4490;49.072;8.804;2023-03-24T15:29:04;14.50;99.90
8910;DHT22;4490;49.072;8.804;2023-03-24T15:31:30;14.50;99.90
8910;DHT22;4490;49.072;8.804;2023-03-24T15:34:05;14.40;99.90
8910;DHT22;4490;49.072;8.804;2023-03-24T15:36:38;14.40;99.90
8910;DHT22;4490;49.072;8.804;2023-03-24T15:39:18;14.40;99.90
8910;DHT22;4490;49.072;8.804;2023-03-24T15:41:45;14.50;99.90
8910;DHT22;4490;49.072;8.804;2023-03-24T15:44:20;14.60;99.90
8910;DHT22;4490;49.072;8.804;2023-03-24T15:46:48;14.60;99.90
8910;DHT22;4490;49.072;8.804;2023-03-24T15:49:50;14.70;99.90
8910;DHT22;4490;49.072;8.804;2023-03-24T15:52:31;14.80;99.90
8910;DHT22;4490;49.072;8.804;2023-03-24T15:57:49;14.80;99.90
8910;DHT22;4490;49.072;8.804;2023-03-24T16:00:17;14.70;99.90
8910;DHT22;4490;49.072;8.804;2023-03-24T16:02:50;14.70;99.90
8910;DHT22;4490;49.072;8.804;2023-03-24T16:08:22;14.60;99.90
8910;DHT22;4490;49.072;8.804;2023-03-24T16:11:01;14.60;99.90
8910;DHT22;4490;49.072;8.804;2023-03-24T16:13:29;14.60;99.90
8910;DHT22;4490;49.072;8.804;2023-03-24T16:16:00;14.70;99.90
8910;DHT22;4490;49.072;8.804;2023-03-24T16:18:33;14.70;99.90
8910;DHT22;4490;49.072;8.804;2023-03-24T16:21:00;14.70;99.90
8910;DHT22;4490;49.072;8.804;2023-03-24T16:23:27;14.70;99.90
8910;DHT22;4490;49.072;8.804;2023-03-24T16:25:53;14.70;99.90
8910;DHT22;4490;49.072;8.804;2023-03-24T16:28:20;14.70;99.90
8910;DHT22;4490;49.072;8.804;2023-03-24T16:30:54;14.70;99.90
8910;DHT22;4490;49.072;8.804;2023-03-24T16:33:21;14.70;99.90
8910;DHT22;4490;49.072;8.804;2023-03-24T16:35:47;14.70;99.90
8910;DHT22;4490;49.072;8.804;2023-03-24T16:38:13;14.70;99.90
8910;DHT22;4490;49.072;8.804;2023-03-24T16:40:49;14.70;99.90
8910;DHT22;4490;49.072;8.804;2023-03-24T16:43:16;14.70;99.90
8910;DHT22;4490;49.072;8.804;2023-03-24T16:45:48;14.70;99.90
8910;DHT22;4490;49.072;8.804;2023-03-24T16:48:14;14.70;99.90
8910;DHT22;4490;49.072;8.804;2023-03-24T16:50:45;14.70;99.90
8910;DHT22;4490;49.072;8.804;2023-03-24T16:53:11;14.70;99.90
8910;DHT22;4490;49.072;8.804;2023-03-24T16:55:38;14.70;99.90
8910;DHT22;4490;49.072;8.804;2023-03-24T16:58:06;14.70;99.00
8910;DHT22;4490;49.072;8.804;2023-03-24T17:00:34;14.70;97.80
8910;DHT22;4490;49.072;8.804;2023-03-24T17:03:02;14.70;96.90
8910;DHT22;4490;49.072;8.804;2023-03-24T17:05:31;14.70;96.40
8910;DHT22;4490;49.072;8.804;2023-03-24T17:08:00;14.70;96.30
8910;DHT22;4490;49.072;8.804;2023-03-24T17:10:26;14.60;95.70
8910;DHT22;4490;49.072;8.804;2023-03-24T17:12:53;14.50;95.60
8910;DHT22;4490;49.072;8.804;2023-03-24T17:15:24;14.50;95.80
8910;DHT22;4490;49.072;8.804;2023-03-24T17:17:51;14.50;95.80
8910;DHT22;4490;49.072;8.804;2023-03-24T17:20:17;14.50;95.40
8910;DHT22;4490;49.072;8.804;2023-03-24T17:22:45;14.40;95.50
8910;DHT22;4490;49.072;8.804;2023-03-24T17:25:13;14.40;95.20
8910;DHT22;4490;49.072;8.804;2023-03-24T17:27:39;14.40;95.10
8910;DHT22;4490;49.072;8.804;2023-03-24T17:30:06;14.30;94.90
8910;DHT22;4490;49.072;8.804;2023-03-24T17:32:32;14.30;94.80
8910;DHT22;4490;49.072;8.804;2023-03-24T17:34:59;14.20;95.10
8910;DHT22;4490;49.072;8.804;2023-03-24T17:37:27;14.20;95.10
8910;DHT22;4490;49.072;8.804;2023-03-24T17:39:54;14.20;95.10
8910;DHT22;4490;49.072;8.804;2023-03-24T17:42:24;14.10;95.00
8910;DHT22;4490;49.072;8.804;2023-03-24T17:44:50;14.10;95.30
8910;DHT22;4490;49.072;8.804;2023-03-24T17:47:16;14.10;95.40
8910;DHT22;4490;49.072;8.804;2023-03-24T17:49:42;14.00;95.30
8910;DHT22;4490;49.072;8.804;2023-03-24T17:52:08;14.00;95.20
8910;DHT22;4490;49.072;8.804;2023-03-24T17:54:34;13.90;95.20
8910;DHT22;4490;49.072;8.804;2023-03-24T17:57:00;13.90;95.40
8910;DHT22;4490;49.072;8.804;2023-03-24T17:59:26;13.90;95.40
8910;DHT22;4490;49.072;8.804;2023-03-24T18:01:52;13.90;95.40
8910;DHT22;4490;49.072;8.804;2023-03-24T18:04:17;13.80;95.40
8910;DHT22;4490;49.072;8.804;2023-03-24T18:06:45;13.80;95.60
8910;DHT22;4490;49.072;8.804;2023-03-24T18:09:12;13.80;95.90
8910;DHT22;4490;49.072;8.804;2023-03-24T18:11:38;13.80;95.90
8910;DHT22;4490;49.072;8.804;2023-03-24T18:14:03;13.70;96.00
8910;DHT22;4490;49.072;8.804;2023-03-24T18:16:29;13.70;96.40
8910;DHT22;4490;49.072;8.804;2023-03-24T18:18:56;13.70;96.80
8910;DHT22;4490;49.072;8.804;2023-03-24T18:21:22;13.60;97.50
8910;DHT22;4490;49.072;8.804;2023-03-24T18:23:48;13.50;98.40
8910;DHT22;4490;49.072;8.804;2023-03-24T18:26:16;13.50;98.90
8910;DHT22;4490;49.072;8.804;2023-03-24T18:28:42;13.40;99.50
8910;DHT22;4490;49.072;8.804;2023-03-24T18:31:14;13.40;99.90
8910;DHT22;4490;49.072;8.804;2023-03-24T18:33:41;13.30;99.90
8910;DHT22;4490;49.072;8.804;2023-03-24T18:36:08;13.30;99.90
8910;DHT22;4490;49.072;8.804;2023-03-24T18:38:38;13.30;99.90
8910;DHT22;4490;49.072;8.804;2023-03-24T18:41:05;13.30;99.90
8910;DHT22;4490;49.072;8.804;2023-03-24T18:43:32;13.20;99.90
8910;DHT22;4490;49.072;8.804;2023-03-24T18:46:08;13.20;99.90
8910;DHT22;4490;49.072;8.804;2023-03-24T18:48:38;13.20;99.90
8910;DHT22;4490;49.072;8.804;2023-03-24T18:51:06;13.20;99.90
8910;DHT22;4490;49.072;8.804;2023-03-24T18:53:32;13.10;99.90
8910;DHT22;4490;49.072;8.804;2023-03-24T18:55:59;13.10;99.90
8910;DHT22;4490;49.072;8.804;2023-03-24T18:58:26;13.00;99.90
8910;DHT22;4490;49.072;8.804;2023-03-24T19:00:54;12.90;99.90